Time;durP1;ratioP1;P1;durP2;ratioP2;P2;SDS_P1;SDS_P2;PMS_P1;PMS_P2;Temp;Humidity;BMP_temperature;BMP_pressure;BME280_temperature;BME280_humidity;BME280_pressure;Samples;Min_cycle;Max_cycle;Signal;HPM_P1;HPM_P2
2021/03/26 00:03:23;;;;;;;7.25;4.65;;;6.10;99.90;;;;;;8309665;28;20033;-65
2021/03/26 00:07:23;;;;;;;9.20;4.72;;;6.10;99.90;;;;;;8361598;28;20111;-65
2021/03/26 00:11:28;;;;;;;9.48;4.30;;;6.10;99.90;;;;;;8361448;28;20447;-65
2021/03/26 00:15:29;;;;;;;8.98;5.15;;;5.90;99.90;;;;;;8351217;28;20038;-65
2021/03/26 00:19:29;;;;;;;6.72;3.83;;;6.20;99.90;;;;;;8330085;28;20018;-65
2021/03/26 00:23:30;;;;;;;9.55;4.22;;;6.00;99.90;;;;;;8324363;28;20020;-65
2021/03/26 00:27:30;;;;;;;7.43;3.90;;;6.10;99.90;;;;;;8337443;28;20025;-64
2021/03/26 00:31:31;;;;;;;9.93;4.40;;;5.90;99.90;;;;;;8328192;28;20042;-65
2021/03/26 00:35:32;;;;;;;10.63;5.18;;;5.50;99.90;;;;;;8351521;28;20036;-64
2021/03/26 00:39:33;;;;;;;7.68;4.55;;;5.50;99.90;;;;;;8292372;28;20022;-64
2021/03/26 00:43:33;;;;;;;8.88;4.57;;;5.60;99.90;;;;;;8294398;28;20069;-65
2021/03/26 00:47:34;;;;;;;8.07;4.50;;;5.70;99.90;;;;;;8294836;28;20104;-65
2021/03/26 00:51:36;;;;;;;9.20;4.50;;;5.90;99.90;;;;;;8307001;28;20084;-65
2021/03/26 00:55:37;;;;;;;8.98;4.75;;;5.60;99.90;;;;;;8309417;28;20021;-65
2021/03/26 00:59:38;;;;;;;7.55;4.38;;;5.30;99.90;;;;;;8309772;28;20119;-64
2021/03/26 01:03:38;;;;;;;10.00;4.78;;;5.20;99.90;;;;;;8308219;28;546304;-65
2021/03/26 01:07:39;;;;;;;12.75;6.47;;;5.10;99.90;;;;;;8310251;28;20030;-65
2021/03/26 01:11:41;;;;;;;8.63;5.03;;;5.00;99.90;;;;;;8328571;28;20044;-65
2021/03/26 01:15:41;;;;;;;10.50;5.07;;;4.90;99.90;;;;;;8328117;28;20022;-64
2021/03/26 01:19:43;;;;;;;8.50;4.80;;;4.90;99.90;;;;;;8310500;28;20021;-65
2021/03/26 01:23:44;;;;;;;6.93;4.45;;;4.90;99.90;;;;;;8326735;28;20022;-65
2021/03/26 01:27:44;;;;;;;9.65;4.60;;;5.10;99.90;;;;;;8327763;28;20461;-65
2021/03/26 01:31:45;;;;;;;7.60;4.63;;;5.00;99.90;;;;;;8310314;28;20655;-64
2021/03/26 01:35:45;;;;;;;8.73;4.70;;;4.70;99.90;;;;;;8326834;28;20064;-65
2021/03/26 01:39:46;;;;;;;8.00;4.90;;;4.40;99.90;;;;;;8327082;28;20052;-65
2021/03/26 01:43:47;;;;;;;8.82;4.28;;;4.40;99.90;;;;;;8327420;28;20029;-64
2021/03/26 01:47:50;;;;;;;11.18;4.45;;;4.50;99.90;;;;;;8327841;28;20078;-64
2021/03/26 01:51:51;;;;;;;8.00;5.10;;;4.30;99.90;;;;;;8309693;28;20061;-65
2021/03/26 01:55:53;;;;;;;8.60;4.47;;;4.00;99.90;;;;;;8326175;28;20404;-65
2021/03/26 01:59:55;;;;;;;8.43;4.90;;;3.70;99.90;;;;;;8326992;28;20018;-65
2021/03/26 02:04:02;;;;;;;6.88;4.53;;;3.60;99.90;;;;;;8326490;28;20404;-65
2021/03/26 02:08:02;;;;;;;7.70;4.30;;;3.70;99.90;;;;;;8326791;28;20036;-64
2021/03/26 02:12:19;;;;;;;10.20;4.50;;;4.00;99.90;;;;;;8326443;28;20033;-65
2021/03/26 02:16:22;;;;;;;8.00;4.78;;;3.70;99.90;;;;;;8326821;28;20029;-64
2021/03/26 02:20:34;;;;;;;13.77;4.72;;;3.80;99.90;;;;;;8308970;28;20194;-65
2021/03/26 02:24:36;;;;;;;9.88;5.22;;;3.40;99.90;;;;;;8326202;28;20025;-64
2021/03/26 02:28:36;;;;;;;11.77;5.65;;;3.60;99.90;;;;;;8325758;28;20034;-65
2021/03/26 02:32:40;;;;;;;8.60;5.32;;;3.30;99.90;;;;;;8326352;28;20029;-65
2021/03/26 02:36:48;;;;;;;10.82;5.72;;;3.30;99.90;;;;;;8326046;28;20033;-64
2021/03/26 02:41:18;;;;;;;10.75;6.05;;;3.20;99.90;;;;;;8325615;28;20665;-64
2021/03/26 02:45:31;;;;;;;8.75;5.70;;;3.20;99.90;;;;;;8324899;28;20647;-65
2021/03/26 02:49:47;;;;;;;11.20;5.65;;;3.30;99.90;;;;;;8325718;28;20025;-64
2021/03/26 02:54:14;;;;;;;10.68;5.95;;;3.50;99.90;;;;;;8324716;28;20021;-64
2021/03/26 02:58:22;;;;;;;10.30;5.20;;;3.30;99.90;;;;;;8319157;28;20048;-65
2021/03/26 03:02:24;;;;;;;10.70;5.75;;;3.30;99.90;;;;;;8293238;28;20404;-65
2021/03/26 03:06:30;;;;;;;9.90;5.35;;;3.00;99.90;;;;;;8348979;28;20056;-65
2021/03/26 03:10:46;;;;;;;13.40;6.60;;;2.90;99.90;;;;;;8341147;28;20060;-64
2021/03/26 03:15:05;;;;;;;12.20;6.80;;;2.80;99.90;;;;;;8358667;28;20547;-65
2021/03/26 03:19:31;;;;;;;10.02;5.68;;;2.80;99.90;;;;;;8357915;28;20044;-64
2021/03/26 03:23:40;;;;;;;12.25;6.28;;;2.70;99.90;;;;;;8340588;28;20437;-65
2021/03/26 03:28:09;;;;;;;15.35;7.05;;;2.60;99.90;;;;;;8346952;28;20025;-64
2021/03/26 03:32:30;;;;;;;12.07;6.28;;;2.60;99.90;;;;;;8321586;28;20512;-64
2021/03/26 03:36:56;;;;;;;10.35;6.03;;;2.90;99.90;;;;;;8355954;28;20533;-64
2021/03/26 03:41:14;;;;;;;10.13;6.07;;;2.90;99.90;;;;;;8364214;28;20021;-65
2021/03/26 03:45:23;;;;;;;11.75;5.95;;;2.90;99.90;;;;;;8364242;28;20081;-64
2021/03/26 03:49:34;;;;;;;10.15;6.38;;;2.70;99.90;;;;;;8364290;28;20025;-65
2021/03/26 03:53:51;;;;;;;10.23;6.15;;;2.60;99.90;;;;;;8352215;28;20048;-64
2021/03/26 03:58:04;;;;;;;12.48;6.85;;;2.40;99.90;;;;;;8340249;28;20033;-65
2021/03/26 04:02:10;;;;;;;11.52;6.32;;;2.20;99.90;;;;;;8325741;28;20037;-65
2021/03/26 04:06:19;;;;;;;10.43;6.32;;;2.60;99.90;;;;;;8334585;28;20091;-65
2021/03/26 04:10:20;;;;;;;10.60;5.90;;;2.50;99.90;;;;;;8330235;28;20587;-65
2021/03/26 04:14:32;;;;;;;11.02;5.97;;;2.10;99.90;;;;;;8312326;28;20029;-65
2021/03/26 04:18:59;;;;;;;13.55;6.82;;;2.10;99.90;;;;;;8330357;28;20610;-65
2021/03/26 04:23:13;;;;;;;10.55;6.00;;;2.10;99.90;;;;;;8312161;28;20022;-65
2021/03/26 04:27:25;;;;;;;9.15;5.80;;;2.10;99.90;;;;;;8314150;28;20032;-64
2021/03/26 04:31:32;;;;;;;10.20;5.53;;;2.00;99.90;;;;;;8329940;28;20041;-65
2021/03/26 04:35:33;;;;;;;12.02;5.78;;;2.00;99.90;;;;;;8331873;28;20113;-64
2021/03/26 04:39:36;;;;;;;10.45;5.53;;;1.80;99.90;;;;;;8329523;28;20029;-64
2021/03/26 04:44:06;;;;;;;13.52;5.82;;;2.00;99.90;;;;;;8311634;28;20487;-65
2021/03/26 04:48:30;;;;;;;11.20;5.53;;;1.90;99.90;;;;;;8328892;28;20021;-65
2021/03/26 04:52:38;;;;;;;12.98;5.68;;;1.70;99.90;;;;;;8320334;28;20419;-65
2021/03/26 04:56:45;;;;;;;13.70;7.05;;;1.80;99.90;;;;;;8319565;28;20021;-65
2021/03/26 05:00:53;;;;;;;14.75;7.50;;;2.00;99.90;;;;;;8331510;28;20101;-65
2021/03/26 05:04:55;;;;;;;18.17;7.78;;;1.90;99.90;;;;;;8329427;28;20022;-65
2021/03/26 05:09:00;;;;;;;15.35;8.35;;;1.50;99.90;;;;;;8325764;28;20517;-65
2021/03/26 05:13:08;;;;;;;15.43;8.48;;;1.50;99.90;;;;;;8329788;28;20038;-65
2021/03/26 05:17:16;;;;;;;16.92;8.00;;;1.60;99.90;;;;;;8327239;28;20040;-65
2021/03/26 05:21:27;;;;;;;18.08;8.60;;;1.80;99.90;;;;;;8325972;28;20026;-65
2021/03/26 05:25:36;;;;;;;21.20;7.95;;;1.60;99.90;;;;;;8328207;28;20041;-65
2021/03/26 05:29:37;;;;;;;16.95;8.00;;;1.80;99.90;;;;;;8328758;28;20027;-65
2021/03/26 05:33:44;;;;;;;16.48;8.65;;;1.90;99.90;;;;;;8327113;28;20048;-65
2021/03/26 05:38:14;;;;;;;17.83;7.72;;;2.10;99.90;;;;;;8360862;28;20029;-65
2021/03/26 05:42:28;;;;;;;13.17;7.30;;;2.30;99.90;;;;;;8287975;28;20038;-65
2021/03/26 05:46:47;;;;;;;16.13;7.50;;;2.40;99.90;;;;;;8306661;28;20786;-65
2021/03/26 05:51:20;;;;;;;12.82;7.55;;;2.40;99.90;;;;;;8332553;28;20022;-65
2021/03/26 05:55:24;;;;;;;16.20;7.43;;;2.50;99.90;;;;;;8325201;28;20032;-65
2021/03/26 05:59:41;;;;;;;13.35;7.43;;;2.40;99.90;;;;;;8324349;28;20048;-65
2021/03/26 06:04:11;;;;;;;21.35;10.15;;;2.80;99.90;;;;;;8324758;28;20029;-64
2021/03/26 06:08:51;;;;;;;24.10;12.23;;;4.10;99.90;;;;;;8286146;28;20037;-64
2021/03/26 06:13:19;;;;;;;21.55;11.25;;;4.60;99.90;;;;;;8325923;28;20108;-65
2021/03/26 06:17:44;;;;;;;22.50;10.73;;;5.40;99.90;;;;;;8325886;28;20464;-65
2021/03/26 06:22:16;;;;;;;24.73;11.25;;;5.60;99.90;;;;;;8322908;28;20013;-64
2021/03/26 06:26:19;;;;;;;;;;;6.40;99.90;;;;;;8325717;28;20032;-66
2021/03/26 06:30:31;;;;;;;33.97;15.30;;;7.10;99.90;;;;;;8307789;28;19905;-68
2021/03/26 06:34:57;;;;;;;28.13;13.90;;;7.30;99.90;;;;;;8305868;28;20060;-68
2021/03/26 06:39:08;;;;;;;21.77;11.20;;;7.40;99.90;;;;;;8316242;28;20029;-68
2021/03/26 06:43:28;;;;;;;18.88;9.75;;;7.70;99.90;;;;;;8302503;28;20018;-65
2021/03/26 06:47:48;;;;;;;16.27;9.43;;;7.70;99.90;;;;;;8321464;28;20036;-65
2021/03/26 06:52:19;;;;;;;16.65;9.40;;;8.10;99.90;;;;;;8308731;28;20025;-65
2021/03/26 06:56:50;;;;;;;14.10;6.65;;;8.90;99.90;;;;;;8326500;28;20527;-66
2021/03/26 07:01:19;;;;;;;16.08;9.45;;;9.30;99.90;;;;;;8328439;28;20232;-65
2021/03/26 07:05:50;;;;;;;13.23;8.60;;;9.50;99.90;;;;;;8302759;28;20041;-65
2021/03/26 07:10:04;;;;;;;11.77;7.70;;;8.60;99.90;;;;;;8333598;28;20512;-64
2021/03/26 07:14:19;;;;;;;13.15;7.55;;;9.30;99.90;;;;;;8345536;28;20053;-65
2021/03/26 07:18:27;;;;;;;12.20;7.60;;;9.80;99.90;;;;;;8333381;28;20030;-65
2021/03/26 07:22:54;;;;;;;14.02;7.15;;;9.80;99.90;;;;;;8332548;28;20026;-64
2021/03/26 07:27:27;;;;;;;13.50;7.03;;;9.40;99.90;;;;;;8341819;28;20029;-65
2021/03/26 07:31:33;;;;;;;18.15;7.40;;;8.90;99.90;;;;;;8331578;28;20091;-65
2021/03/26 07:36:08;;;;;;;13.80;6.82;;;8.50;99.90;;;;;;8324553;28;20628;-65
2021/03/26 07:40:36;;;;;;;16.60;7.57;;;8.70;99.90;;;;;;8327185;28;20480;-65
2021/03/26 07:45:30;;;;;;;16.20;7.53;;;8.80;99.90;;;;;;8328333;28;20024;-65
2021/03/26 07:50:06;;;;;;;15.52;7.22;;;9.00;99.90;;;;;;8225547;28;20038;-65
2021/03/26 07:54:32;;;;;;;11.75;6.72;;;9.10;99.90;;;;;;8327950;28;20100;-64
2021/03/26 07:59:00;;;;;;;12.68;6.80;;;9.60;99.90;;;;;;8312255;28;20377;-65
2021/03/26 08:03:23;;;;;;;11.85;5.80;;;10.20;99.90;;;;;;8329209;28;20033;-65
2021/03/26 08:07:38;;;;;;;12.45;5.93;;;10.30;99.90;;;;;;8330084;28;20032;-65
2021/03/26 08:11:49;;;;;;;8.80;5.63;;;10.30;99.90;;;;;;8326406;28;20162;-66
2021/03/26 08:16:07;;;;;;;11.15;6.30;;;10.60;99.90;;;;;;8327641;28;20018;-65
2021/03/26 08:20:26;;;;;;;12.30;6.30;;;10.80;99.90;;;;;;8309441;28;20534;-65
2021/03/26 08:24:50;;;;;;;9.98;5.72;;;10.90;99.90;;;;;;8328377;28;20096;-63
2021/03/26 08:29:26;;;;;;;9.00;5.80;;;11.30;99.90;;;;;;8313974;28;20828;-64
2021/03/26 08:33:46;;;;;;;14.55;5.95;;;11.50;99.90;;;;;;8312196;28;20037;-64
2021/03/26 08:37:58;;;;;;;9.45;5.63;;;11.60;99.90;;;;;;8322829;28;20033;-64
2021/03/26 08:42:12;;;;;;;9.45;5.40;;;11.80;99.90;;;;;;8326010;28;20071;-64
2021/03/26 08:46:23;;;;;;;9.43;5.05;;;12.00;99.90;;;;;;8327104;28;20052;-64
2021/03/26 08:50:57;;;;;;;10.18;4.93;;;12.20;99.90;;;;;;8329177;28;20098;-63
2021/03/26 08:55:26;;;;;;;9.40;5.03;;;12.30;99.90;;;;;;8315300;28;20032;-64
2021/03/26 08:59:36;;;;;;;11.40;5.82;;;12.40;99.90;;;;;;8308659;28;20036;-63
2021/03/26 09:04:10;;;;;;;11.75;5.18;;;12.30;99.90;;;;;;8327243;28;20034;-63
2021/03/26 09:08:43;;;;;;;10.25;5.85;;;12.30;99.90;;;;;;8324931;28;20606;-65
2021/03/26 09:13:02;;;;;;;8.30;5.28;;;12.10;99.90;;;;;;8326220;28;20499;-64
2021/03/26 09:17:31;;;;;;;10.15;5.97;;;12.50;99.90;;;;;;8328087;28;20040;-64
2021/03/26 09:21:38;;;;;;;8.23;5.88;;;12.70;99.90;;;;;;8325885;28;20063;-65
2021/03/26 09:25:45;;;;;;;9.43;5.47;;;13.10;99.90;;;;;;8325555;28;20030;-66
2021/03/26 09:30:02;;;;;;;9.18;5.45;;;13.30;99.90;;;;;;8327988;28;20097;-65
2021/03/26 09:34:27;;;;;;;10.02;5.32;;;13.50;99.90;;;;;;8327585;28;20034;-62
2021/03/26 09:38:49;;;;;;;7.43;4.80;;;13.60;99.80;;;;;;8323114;28;20029;-67
2021/03/26 09:42:54;;;;;;;9.50;5.40;;;13.80;99.90;;;;;;8323750;28;20021;-67
2021/03/26 09:47:11;;;;;;;9.15;5.57;;;13.60;99.80;;;;;;8321844;28;20026;-64
2021/03/26 09:51:23;;;;;;;8.20;5.25;;;13.70;99.60;;;;;;8325166;28;20079;-65
2021/03/26 09:55:34;;;;;;;8.98;5.25;;;13.90;99.50;;;;;;8325066;28;20022;-66
2021/03/26 10:00:03;;;;;;;8.48;4.78;;;14.30;99.90;;;;;;8306209;28;20029;-67
2021/03/26 10:04:10;;;;;;;12.63;5.85;;;14.70;95.80;;;;;;8324197;28;20025;-65
2021/03/26 10:12:41;;;;;;;10.57;5.80;;;14.80;97.00;;;;;;8314087;28;20116;-65
2021/03/26 10:16:50;;;;;;;9.20;5.32;;;15.00;96.00;;;;;;8325677;28;20025;-64
2021/03/26 10:20:59;;;;;;;10.25;5.28;;;15.30;92.90;;;;;;8325449;28;20014;-64
2021/03/26 10:25:07;;;;;;;8.93;5.28;;;15.40;93.90;;;;;;8319383;28;20518;-64
2021/03/26 10:29:36;;;;;;;8.18;4.55;;;15.40;90.90;;;;;;8322951;28;20543;-63
2021/03/26 10:33:54;;;;;;;9.50;5.45;;;15.60;90.50;;;;;;8323113;28;20035;-64
2021/03/26 10:38:24;;;;;;;9.43;5.70;;;15.80;90.10;;;;;;8320037;28;20092;-64
2021/03/26 10:42:50;;;;;;;9.40;4.72;;;16.10;90.90;;;;;;8284511;28;20385;-64
2021/03/26 10:47:33;;;;;;;12.23;5.93;;;16.50;82.60;;;;;;8321997;28;20090;-62
2021/03/26 10:51:53;;;;;;;10.63;5.53;;;16.20;82.20;;;;;;8284813;28;20041;-63
2021/03/26 10:56:06;;;;;;;13.70;5.77;;;16.50;80.10;;;;;;8323822;28;20502;-65
2021/03/26 11:00:23;;;;;;;9.88;5.65;;;16.90;79.70;;;;;;8321616;28;20033;-64
2021/03/26 11:04:40;;;;;;;9.40;4.30;;;18.10;74.00;;;;;;8321341;28;20041;-64
2021/03/26 11:09:08;;;;;;;10.07;5.40;;;20.00;61.50;;;;;;8324077;28;20026;-64
2021/03/26 11:13:58;;;;;;;6.80;4.63;;;22.10;54.30;;;;;;8323070;28;20109;-64
2021/03/26 11:18:02;;;;;;;6.80;4.28;;;24.60;45.80;;;;;;8265835;28;20029;-65
2021/03/26 11:22:26;;;;;;;7.60;4.60;;;24.20;44.90;;;;;;8324503;28;20575;-65
2021/03/26 11:26:45;;;;;;;8.77;4.93;;;24.40;44.10;;;;;;8322313;28;20057;-65
2021/03/26 11:30:48;;;;;;;7.15;4.75;;;25.00;41.80;;;;;;8316474;28;20545;-64
2021/03/26 11:34:50;;;;;;;7.10;4.10;;;26.10;40.70;;;;;;8316794;28;20026;-64
2021/03/26 11:39:02;;;;;;;7.15;4.10;;;25.00;39.40;;;;;;8321372;28;20391;-64
2021/03/26 11:43:20;;;;;;;7.82;4.45;;;24.90;39.80;;;;;;8322365;28;20022;-64
2021/03/26 11:47:26;;;;;;;6.13;3.78;;;25.00;40.20;;;;;;8324830;28;20036;-63
2021/03/26 11:51:34;;;;;;;5.50;3.25;;;25.50;37.90;;;;;;8325108;28;20032;-64
2021/03/26 11:55:39;;;;;;;4.95;3.22;;;26.10;36.80;;;;;;8325848;28;20223;-63
2021/03/26 11:59:52;;;;;;;6.47;3.53;;;26.00;35.80;;;;;;8327189;28;20491;-63
2021/03/26 12:04:17;;;;;;;5.72;3.15;;;24.40;39.60;;;;;;8312099;28;20033;-64
2021/03/26 12:08:45;;;;;;;7.80;4.57;;;25.70;36.10;;;;;;8307280;28;20443;-64
2021/03/26 12:12:54;;;;;;;8.98;4.20;;;25.70;36.80;;;;;;8329977;28;20029;-64
2021/03/26 12:17:25;;;;;;;4.60;2.78;;;25.90;36.40;;;;;;8330677;28;20095;-64
2021/03/26 12:21:29;;;;;;;5.35;4.25;;;26.20;36.30;;;;;;8313349;28;20018;-64
2021/03/26 12:25:50;;;;;;;7.35;4.30;;;25.10;37.70;;;;;;8330634;28;20404;-64
2021/03/26 12:29:58;;;;;;;5.60;3.80;;;26.00;37.00;;;;;;8329857;28;20030;-62
2021/03/26 12:34:35;;;;;;;6.72;4.45;;;25.50;36.10;;;;;;8325944;28;20025;-64
2021/03/26 12:38:56;;;;;;;8.10;4.80;;;25.20;38.40;;;;;;8326843;28;20036;-63
2021/03/26 12:43:28;;;;;;;5.87;4.73;;;25.50;39.50;;;;;;8327216;28;20018;-63
2021/03/26 12:48:08;;;;;;;6.40;4.88;;;25.30;38.10;;;;;;8300709;28;20273;-64
2021/03/26 12:52:31;;;;;;;9.57;4.97;;;26.20;38.60;;;;;;8327176;28;20025;-64
2021/03/26 12:56:50;;;;;;;6.07;4.60;;;26.30;37.10;;;;;;8326187;28;20052;-63
2021/03/26 13:01:04;;;;;;;8.63;5.18;;;26.60;37.30;;;;;;8320823;28;20495;-64
2021/03/26 13:05:05;;;;;;;8.68;4.75;;;26.30;37.30;;;;;;8324173;28;20041;-65
2021/03/26 13:09:35;;;;;;;9.25;5.30;;;28.00;35.40;;;;;;8322967;28;20047;-64
2021/03/26 13:14:04;;;;;;;5.78;4.18;;;29.00;35.60;;;;;;8323936;28;20033;-64
2021/03/26 13:18:12;;;;;;;4.03;2.75;;;28.40;33.90;;;;;;8317444;28;20061;-64
2021/03/26 13:22:21;;;;;;;4.03;2.85;;;28.10;32.20;;;;;;8322510;28;20056;-64
2021/03/26 13:26:26;;;;;;;6.20;3.13;;;26.60;34.20;;;;;;8309378;28;20029;-65
2021/03/26 13:30:43;;;;;;;10.85;3.20;;;25.70;35.40;;;;;;8314931;28;20029;-65
2021/03/26 13:34:46;;;;;;;4.43;2.95;;;26.40;34.40;;;;;;8323677;28;20033;-66
2021/03/26 13:38:57;;;;;;;5.68;3.33;;;26.10;33.70;;;;;;8326445;28;20068;-66
2021/03/26 13:43:02;;;;;;;7.00;3.20;;;25.70;35.50;;;;;;8313033;28;20121;-66
2021/03/26 13:47:42;;;;;;;4.68;2.70;;;25.20;37.00;;;;;;8320092;28;20095;-66
2021/03/26 13:51:46;;;;;;;7.10;2.92;;;25.90;35.80;;;;;;8295448;28;20063;-66
2021/03/26 13:55:50;;;;;;;5.32;3.08;;;28.50;33.40;;;;;;8322967;28;20087;-65
2021/03/26 14:00:06;;;;;;;4.93;2.88;;;29.80;31.30;;;;;;8307863;28;20022;-66
2021/03/26 14:04:27;;;;;;;6.88;2.50;;;30.10;29.70;;;;;;8309155;28;20025;-66
2021/03/26 14:08:33;;;;;;;8.38;2.83;;;29.30;31.30;;;;;;8325588;28;20231;-66
2021/03/26 14:12:43;;;;;;;7.35;2.78;;;28.50;30.70;;;;;;8305918;28;20037;-63
2021/03/26 14:17:05;;;;;;;4.97;3.47;;;26.20;33.40;;;;;;8307216;28;20399;-64
2021/03/26 14:21:38;;;;;;;4.70;3.40;;;24.60;36.00;;;;;;8326373;28;20503;-65
2021/03/26 14:26:02;;;;;;;4.15;3.10;;;23.00;38.00;;;;;;8267219;28;20082;-66
2021/03/26 14:30:18;;;;;;;6.78;2.80;;;20.70;41.70;;;;;;8324743;28;20751;-66
2021/03/26 14:34:33;;;;;;;6.88;3.08;;;20.50;42.10;;;;;;8308028;28;20040;-66
2021/03/26 14:38:45;;;;;;;7.18;3.58;;;20.30;43.30;;;;;;8309137;28;20026;-66
2021/03/26 14:42:50;;;;;;;7.57;3.80;;;21.30;42.80;;;;;;8307797;28;20049;-66
2021/03/26 14:46:59;;;;;;;9.68;3.70;;;21.70;42.40;;;;;;8307024;28;20034;-66
2021/03/26 14:51:09;;;;;;;5.07;3.55;;;21.40;41.40;;;;;;8301916;28;20025;-66
2021/03/26 14:55:16;;;;;;;5.53;3.30;;;20.90;42.80;;;;;;8305766;28;20156;-66
2021/03/26 14:59:28;;;;;;;6.22;3.53;;;20.80;42.00;;;;;;8307568;28;20057;-65
2021/03/26 15:03:38;;;;;;;7.13;4.03;;;19.80;44.20;;;;;;8308139;28;20045;-66
2021/03/26 15:07:42;;;;;;;6.85;3.40;;;19.30;46.10;;;;;;8321539;28;20033;-65
2021/03/26 15:11:55;;;;;;;10.50;4.28;;;18.50;48.00;;;;;;8324755;28;20483;-65
2021/03/26 15:16:18;;;;;;;8.00;4.60;;;18.20;50.00;;;;;;8324087;28;20554;-66
2021/03/26 15:20:24;;;;;;;8.73;3.75;;;18.10;50.60;;;;;;8320428;28;20096;-66
2021/03/26 15:24:58;;;;;;;7.68;4.30;;;17.80;51.30;;;;;;8332145;28;20026;-66
2021/03/26 15:29:17;;;;;;;4.97;3.55;;;17.60;51.30;;;;;;8285758;28;20125;-66
2021/03/26 15:33:46;;;;;;;7.65;4.38;;;18.60;50.10;;;;;;8328631;28;20025;-65
2021/03/26 15:38:25;;;;;;;9.13;4.65;;;19.10;49.10;;;;;;8328846;28;20124;-66
2021/03/26 15:42:51;;;;;;;6.68;4.22;;;19.40;48.90;;;;;;8283208;28;20038;-66
2021/03/26 15:47:07;;;;;;;6.70;4.15;;;20.90;46.90;;;;;;8311005;28;20033;-66
2021/03/26 15:51:17;;;;;;;5.13;3.70;;;22.30;44.50;;;;;;8308232;28;20103;-66
2021/03/26 15:55:27;;;;;;;8.48;3.97;;;22.30;43.00;;;;;;8307950;28;20029;-65
2021/03/26 15:59:32;;;;;;;7.38;4.30;;;20.90;44.50;;;;;;8326969;28;20520;-64
2021/03/26 16:04:01;;;;;;;6.60;3.95;;;19.40;48.20;;;;;;8312756;28;20033;-66
2021/03/26 16:08:28;;;;;;;6.45;3.85;;;18.30;50.20;;;;;;8318257;28;20124;-66
2021/03/26 16:13:06;;;;;;;6.47;3.72;;;17.80;50.70;;;;;;8302885;28;20562;-62
2021/03/26 16:17:07;;;;;;;5.40;3.90;;;17.20;52.50;;;;;;8329593;28;20037;-68
2021/03/26 16:21:25;;;;;;;8.57;3.97;;;16.70;55.00;;;;;;8322516;28;20022;-67
2021/03/26 16:25:31;;;;;;;5.97;4.20;;;16.40;56.00;;;;;;8323046;28;20022;-66
2021/03/26 16:29:57;;;;;;;8.13;4.18;;;16.40;56.80;;;;;;8312615;28;20541;-66
2021/03/26 16:34:19;;;;;;;7.57;4.38;;;16.40;56.40;;;;;;8320758;28;20112;-66
2021/03/26 16:38:54;;;;;;;8.95;4.13;;;16.30;56.80;;;;;;8309981;28;20025;-67
2021/03/26 16:43:09;;;;;;;7.03;4.25;;;16.30;57.00;;;;;;8327872;28;20060;-66
2021/03/26 16:47:36;;;;;;;10.52;5.32;;;16.00;59.40;;;;;;8295199;28;20485;-64
2021/03/26 16:51:45;;;;;;;11.02;5.53;;;15.80;60.30;;;;;;8295442;28;20041;-65
2021/03/26 16:56:08;;;;;;;9.45;5.07;;;15.70;61.20;;;;;;8304613;28;20135;-64
2021/03/26 17:00:30;;;;;;;9.95;5.28;;;15.60;62.00;;;;;;8326890;28;20078;-65
2021/03/26 17:04:55;;;;;;;13.20;5.55;;;15.30;63.90;;;;;;8309752;28;20026;-64
2021/03/26 17:09:18;;;;;;;16.05;5.38;;;15.00;65.20;;;;;;8308416;28;20036;-66
2021/03/26 17:13:24;;;;;;;9.50;5.40;;;14.70;67.00;;;;;;8320077;28;20076;-68
2021/03/26 17:17:52;;;;;;;7.70;5.55;;;14.40;68.30;;;;;;8302602;28;20033;-67
2021/03/26 17:22:38;;;;;;;9.80;6.35;;;14.20;68.60;;;;;;8298557;28;20052;-67
2021/03/26 17:27:15;;;;;;;26.48;12.95;;;14.00;70.00;;;;;;8309330;28;20057;-67
2021/03/26 17:31:37;;;;;;;12.07;6.65;;;13.90;72.40;;;;;;8303880;28;20057;-67
2021/03/26 17:35:52;;;;;;;12.02;6.30;;;13.90;71.80;;;;;;8324337;28;20029;-66
2021/03/26 17:40:02;;;;;;;10.95;6.05;;;13.70;71.70;;;;;;8324569;28;20026;-67
2021/03/26 17:44:11;;;;;;;12.40;8.48;;;13.60;74.00;;;;;;8325595;28;20033;-67
2021/03/26 17:48:19;;;;;;;12.98;7.07;;;13.50;74.30;;;;;;8325053;28;20741;-67
2021/03/26 17:52:35;;;;;;;14.52;7.30;;;13.40;75.50;;;;;;8312828;28;20025;-67
2021/03/26 17:56:53;;;;;;;10.52;6.90;;;13.20;78.40;;;;;;8324883;28;20060;-67
2021/03/26 18:00:59;;;;;;;12.50;7.05;;;12.90;79.50;;;;;;8307834;28;20029;-67
2021/03/26 18:05:15;;;;;;;11.18;7.00;;;12.90;79.30;;;;;;8308017;28;20381;-67
2021/03/26 18:09:50;;;;;;;13.02;7.47;;;12.80;81.50;;;;;;8325679;28;20095;-67
2021/03/26 18:14:13;;;;;;;13.82;7.82;;;12.70;82.70;;;;;;8308177;28;20053;-67
2021/03/26 18:18:26;;;;;;;15.98;7.00;;;12.60;84.10;;;;;;8324661;28;20033;-67
2021/03/26 18:22:33;;;;;;;11.48;6.65;;;12.40;86.80;;;;;;8322939;28;20431;-66
2021/03/26 18:27:04;;;;;;;12.43;7.35;;;12.30;87.30;;;;;;8324755;28;20360;-66
2021/03/26 18:31:36;;;;;;;11.05;6.65;;;12.20;89.10;;;;;;8306054;28;20036;-67
2021/03/26 18:35:40;;;;;;;;;;;12.10;90.00;;;;;;8319010;28;20455;-67
2021/03/26 18:39:47;;;;;;;15.85;7.80;;;11.90;90.60;;;;;;8315909;28;19913;-67
2021/03/26 18:44:07;;;;;;;13.20;7.38;;;11.80;91.50;;;;;;8312181;28;20018;-67
2021/03/26 18:48:37;;;;;;;13.48;7.47;;;11.70;92.30;;;;;;8294623;28;20512;-67
2021/03/26 18:52:43;;;;;;;12.88;7.82;;;11.40;93.40;;;;;;8324993;28;20033;-66
2021/03/26 18:56:53;;;;;;;11.27;7.47;;;11.20;94.50;;;;;;8298120;28;20543;-66
2021/03/26 19:01:04;;;;;;;18.75;12.32;;;11.20;95.80;;;;;;8316397;28;20491;-66
2021/03/26 19:05:13;;;;;;;13.30;8.43;;;11.10;96.80;;;;;;8330426;28;20923;-66
2021/03/26 19:09:20;;;;;;;13.13;7.75;;;10.90;97.90;;;;;;8329450;28;20030;-66
2021/03/26 19:13:39;;;;;;;13.30;8.35;;;10.80;99.50;;;;;;8313618;28;20037;-66
2021/03/26 19:17:41;;;;;;;16.23;8.43;;;10.70;99.90;;;;;;8307188;28;20033;-66
2021/03/26 19:21:49;;;;;;;16.08;8.07;;;10.60;99.90;;;;;;8331959;28;20662;-66
2021/03/26 19:26:00;;;;;;;16.17;8.65;;;10.50;99.90;;;;;;8331502;28;20503;-66
2021/03/26 19:30:22;;;;;;;14.30;8.13;;;10.40;99.90;;;;;;8313747;28;20496;-66
2021/03/26 19:34:47;;;;;;;13.77;8.80;;;10.40;99.90;;;;;;8314561;28;20033;-66
2021/03/26 19:38:57;;;;;;;17.10;8.98;;;10.60;99.90;;;;;;8325584;28;20403;-66
2021/03/26 19:43:23;;;;;;;16.30;8.80;;;10.40;99.90;;;;;;8306235;28;20499;-67
2021/03/26 19:47:38;;;;;;;14.43;8.63;;;10.30;99.90;;;;;;8328221;28;20037;-66
2021/03/26 19:51:51;;;;;;;14.98;8.88;;;10.40;99.90;;;;;;8331358;28;20033;-66
2021/03/26 19:56:24;;;;;;;12.80;9.57;;;10.40;99.90;;;;;;8331189;28;20040;-67
2021/03/26 20:00:56;;;;;;;18.15;8.02;;;10.70;99.90;;;;;;8309184;28;20041;-65
2021/03/26 20:05:06;;;;;;;16.52;7.95;;;10.90;99.90;;;;;;8329737;28;20496;-65
2021/03/26 20:09:12;;;;;;;16.60;8.63;;;11.00;99.90;;;;;;8312409;28;20029;-66
2021/03/26 20:13:42;;;;;;;13.98;9.15;;;11.00;99.90;;;;;;8330107;28;20033;-64
2021/03/26 20:18:07;;;;;;;18.35;9.30;;;11.10;99.90;;;;;;8312660;28;20037;-65
2021/03/26 20:22:13;;;;;;;15.13;9.13;;;11.00;99.90;;;;;;8330545;28;20120;-65
2021/03/26 20:26:39;;;;;;;24.63;11.43;;;11.10;99.90;;;;;;8330351;28;20041;-65
2021/03/26 20:31:21;;;;;;;17.13;9.80;;;10.90;99.90;;;;;;8329165;28;20400;-65
2021/03/26 20:35:49;;;;;;;22.45;10.75;;;10.70;99.90;;;;;;8238840;28;20415;-65
2021/03/26 20:40:33;;;;;;;16.25;10.02;;;10.80;99.90;;;;;;8310149;28;20033;-65
2021/03/26 20:45:03;;;;;;;20.13;9.80;;;10.80;99.90;;;;;;8283311;28;20040;-65
2021/03/26 20:49:03;;;;;;;15.32;9.00;;;10.80;99.90;;;;;;8327409;28;20468;-65
2021/03/26 20:53:28;;;;;;;15.85;9.35;;;10.70;99.90;;;;;;8306630;28;20040;-66
2021/03/26 20:57:42;;;;;;;16.17;9.25;;;10.80;99.90;;;;;;8322984;28;20025;-66
2021/03/26 21:01:50;;;;;;;17.35;10.02;;;10.60;99.90;;;;;;8334278;28;20103;-66
2021/03/26 21:05:58;;;;;;;16.38;8.20;;;10.80;99.90;;;;;;8357340;28;20488;-66
2021/03/26 21:10:05;;;;;;;16.33;8.43;;;10.90;99.90;;;;;;8331441;28;20030;-65
2021/03/26 21:14:21;;;;;;;16.30;8.30;;;10.90;99.90;;;;;;8311185;28;20084;-65
2021/03/26 21:18:45;;;;;;;14.32;8.63;;;11.00;99.90;;;;;;8324268;28;20030;-66
2021/03/26 21:22:55;;;;;;;20.17;8.65;;;11.00;99.90;;;;;;8332145;28;20034;-65
2021/03/26 21:27:08;;;;;;;16.85;9.05;;;10.90;99.90;;;;;;8319391;28;20510;-66
2021/03/26 21:31:15;;;;;;;16.90;9.50;;;10.90;99.90;;;;;;8309135;28;20128;-66
2021/03/26 21:35:55;;;;;;;16.25;8.95;;;10.90;99.90;;;;;;8312889;28;20502;-67
2021/03/26 21:40:03;;;;;;;18.65;9.38;;;10.60;99.90;;;;;;8320831;28;20100;-67
2021/03/26 21:44:23;;;;;;;15.07;8.80;;;10.20;99.90;;;;;;8321377;28;20033;-67
2021/03/26 21:48:48;;;;;;;18.38;9.50;;;10.10;99.90;;;;;;8304683;28;20053;-67
2021/03/26 21:53:18;;;;;;;21.83;11.20;;;9.80;99.90;;;;;;8321990;28;20044;-68
2021/03/26 21:57:27;;;;;;;24.88;12.90;;;9.80;99.90;;;;;;8292250;28;20051;-67
2021/03/26 22:01:42;;;;;;;15.68;9.25;;;9.60;99.90;;;;;;8305154;28;20029;-67
2021/03/26 22:05:47;;;;;;;16.13;9.10;;;9.50;99.90;;;;;;8321611;28;20040;-67
2021/03/26 22:09:54;;;;;;;17.13;8.82;;;9.60;99.90;;;;;;8323544;28;20045;-67
2021/03/26 22:14:11;;;;;;;16.98;9.63;;;9.70;99.90;;;;;;8320182;28;20041;-67